Igor I Sikorsky Memorial Airport
KBDR : now visible

Aeroporto :











RITROVATECI SU...

 
LOGIN :

Iscrizione | Disclaimer

   EN    FR    IT 

 









Sommario :    VFR   VFR Marginale   IFR   IFR Intensivo   IFR Molto Intensivo
Visibilità : 
Base nubi : 
>= 8 km
>= 3000ft
5 / 8 km
1000 / 3000 ft
1500m / 5 km
500 / 1000 ft
800 / 1500m
200 / 500 ft
< 800m
< 200 ft
Simboli :   Temporali  Nebbia  Neve Forte  Precipitazioni Forti  Vento > 20 kt







- Altitudine del aeroporto : 9 ft
- Codice IATA : BDR


KBDR - Igor I Sikorsky Memorial

ULTIMO METAR :
  • 251152Z 03014KT 10SM CLR 19/13 A3028 RMK AO2 SLP254 T01890133 10189 20172 53007

METARs OBSOLETI :
  • 251052Z 03009KT 10SM CLR 17/13 A3027 RMK AO2 SLP250 T01720128
  • 250952Z AUTO 03009KT 10SM CLR 17/13 A3026 RMK AO2 SLP247 T01720133

TAF KBDR
Valido dal 25 a 12 ore il 26 a 12 ore UTC


251120Z 2512/2612 04011KT P6SM SCT025 SCT060
FM251400 06014G20KT P6SM SCT025 BKN060
FM260000 06011KT P6SM SCT025 SCT060
FM260600 04010KT P6SM BKN025
Nessun NOTAM noto per questo aeroporto.



MetMap, La meteo Aeronautica in un colpo d'occhio ! - Copyright ORBIFLY Dicembre 2007 - Disclaimer

ORBIFLY MET'MAP TEAM :

Programmazione e sviluppo : Alexandra Zaïnal
Concezione e sviluppo : Baudouin d'Aumeries
Co-Programmazione e sviluppo : Marc-Olivier Méhu
Supporto tecnico e logistico : Manuel Goepfert
Aiuto per la traduzione : Arnaldo La Scala

Contatto : metmap@orbifly.com




FONTI E CREDITI :

   NOAA       Earth
Advisory